Time;durP1;ratioP1;P1;durP2;ratioP2;P2;SDS_P1;SDS_P2;PMS_P1;PMS_P2;Temp;Humidity;BMP_temperature;BMP_pressure;BME280_temperature;BME280_humidity;BME280_pressure;Samples;Min_cycle;Max_cycle;Signal;HPM_P1;HPM_P2
2021/04/15 00:00:28;;;;;;;0.80;0.80;;;;;;;0.20;76.85;97746.94;29989;204;6000;-59
2021/04/15 00:01:19;;;;;;;0.80;0.80;;;;;;;0.18;76.78;97757.00;29990;207;6004;-59
2021/04/15 00:02:08;;;;;;;0.80;0.80;;;;;;;0.21;76.73;97753.91;29989;233;6000;-58
2021/04/15 00:02:39;;;;;;;0.80;0.80;;;;;;;0.21;76.62;97753.91;29990;208;6005;-58
2021/04/15 00:03:15;;;;;;;0.75;0.75;;;;;;;0.20;76.94;97752.28;29990;202;6000;-59
2021/04/15 00:03:47;;;;;;;0.80;0.80;;;;;;;0.18;77.03;97748.97;29990;257;6004;-55
2021/04/15 00:04:18;;;;;;;0.80;0.80;;;;;;;0.18;77.10;97748.97;29990;216;6000;-55
2021/04/15 00:04:48;;;;;;;0.70;0.70;;;;;;;0.16;77.04;97746.53;29990;227;6004;-58
2021/04/15 00:05:26;;;;;;;0.80;0.80;;;;;;;0.22;76.95;97748.38;29991;202;6000;-59
2021/04/15 00:06:00;;;;;;;0.80;0.80;;;;;;;0.27;76.73;97748.56;29990;232;6004;-58
2021/04/15 00:06:31;;;;;;;0.80;0.80;;;;;;;0.33;76.19;97746.94;29990;218;6000;-58
2021/04/15 00:07:02;;;;;;;0.70;0.70;;;;;;;0.36;76.16;97745.66;29989;323;6004;-58
2021/04/15 00:07:33;;;;;;;0.80;0.80;;;;;;;0.37;76.17;97748.12;29990;212;6000;-58
2021/04/15 00:08:06;;;;;;;0.70;0.70;;;;;;;0.38;76.15;97747.09;29990;222;6004;-59
2021/04/15 00:08:37;;;;;;;0.70;0.70;;;;;;;0.37;76.22;97742.78;29990;211;6000;-59
2021/04/15 00:09:19;;;;;;;0.80;0.80;;;;;;;0.39;76.04;97750.59;29990;235;6005;-60
2021/04/15 00:09:56;;;;;;;0.80;0.80;;;;;;;0.36;76.29;97751.84;29990;230;6000;-58
2021/04/15 00:10:31;;;;;;;0.80;0.80;;;;;;;0.33;76.34;97747.75;29989;239;6005;-59
2021/04/15 00:11:03;;;;;;;0.70;0.70;;;;;;;0.31;76.14;97743.66;29990;266;6000;-60
2021/04/15 00:11:34;;;;;;;0.80;0.80;;;;;;;0.30;76.35;97750.03;29990;216;6004;-59
2021/04/15 00:12:06;;;;;;;0.73;0.73;;;;;;;0.29;76.27;97741.19;29990;363;6000;-58
2021/04/15 00:12:38;;;;;;;0.80;0.80;;;;;;;0.29;76.45;97743.03;29990;221;6004;-58
2021/04/15 00:13:16;;;;;;;0.70;0.70;;;;;;;0.28;76.41;97749.41;29990;197;6000;-56
2021/04/15 00:13:52;;;;;;;0.70;0.70;;;;;;;0.27;76.59;97747.75;29990;214;6004;-58
2021/04/15 00:14:24;;;;;;;0.80;0.80;;;;;;;0.29;76.45;97746.53;29990;225;6000;-58
2021/04/15 00:14:54;;;;;;;0.70;0.70;;;;;;;0.29;76.46;97751.03;29990;204;6004;-56
2021/04/15 00:15:27;;;;;;;0.80;0.80;;;;;;;0.30;76.54;97747.34;29990;218;6000;-59
2021/04/15 00:16:00;;;;;;;0.80;0.80;;;;;;;0.31;76.63;97749.00;29990;320;6004;-60
2021/04/15 00:16:32;;;;;;;0.70;0.70;;;;;;;0.31;76.54;97744.47;29989;222;6009;-58
2021/04/15 00:17:03;;;;;;;0.80;0.80;;;;;;;0.31;76.53;97749.00;29990;200;6005;-59
2021/04/15 00:17:34;;;;;;;0.77;0.77;;;;;;;0.26;76.64;97738.09;29990;206;6000;-58
2021/04/15 00:18:05;;;;;;;0.80;0.80;;;;;;;0.31;76.42;97749.00;29990;270;6005;-58
2021/04/15 00:18:36;;;;;;;0.80;0.80;;;;;;;0.29;76.69;97746.53;29990;245;6000;-59
2021/04/15 00:19:10;;;;;;;0.80;0.80;;;;;;;0.28;76.74;97744.06;29990;223;6006;-56
2021/04/15 00:19:40;;;;;;;0.80;0.80;;;;;;;0.26;76.85;97736.25;29990;354;6000;-58
2021/04/15 00:20:12;;;;;;;0.77;0.77;;;;;;;0.27;76.57;97737.09;29990;228;6004;-59
2021/04/15 00:20:43;;;;;;;0.70;0.70;;;;;;;0.28;76.62;97744.06;29990;245;6000;-58
2021/04/15 00:21:16;;;;;;;0.80;0.80;;;;;;;0.30;76.48;97747.34;29990;206;6004;-59
2021/04/15 00:21:48;;;;;;;0.80;0.80;;;;;;;0.29;76.51;97741.19;29989;218;6000;-57
2021/04/15 00:22:19;;;;;;;0.80;0.80;;;;;;;0.31;76.52;97738.31;29990;337;6004;-58
2021/04/15 00:22:50;;;;;;;0.75;0.75;;;;;;;0.31;76.62;97744.47;29990;200;6000;-59
2021/04/15 00:23:21;;;;;;;0.70;0.70;;;;;;;0.33;76.50;97741.59;29990;281;6005;-59
2021/04/15 00:23:52;;;;;;;0.80;0.80;;;;;;;0.32;76.53;97734.63;29990;258;6000;-58
2021/04/15 00:24:26;;;;;;;0.80;0.80;;;;;;;0.35;76.26;97734.16;29990;206;6005;-60
2021/04/15 00:24:59;;;;;;;0.80;0.80;;;;;;;0.36;76.29;97735.00;29990;202;6000;-59
2021/04/15 00:25:30;;;;;;;0.80;0.80;;;;;;;0.36;76.40;97737.66;29990;292;6000;-58
2021/04/15 00:26:02;;;;;;;0.80;0.80;;;;;;;0.35;76.41;97734.16;29990;207;6000;-58
2021/04/15 00:26:33;;;;;;;0.70;0.70;;;;;;;0.36;76.32;97730.47;29990;331;6004;-59
2021/04/15 00:27:05;;;;;;;0.80;0.80;;;;;;;0.37;76.53;97726.78;29989;355;6000;-56
2021/04/15 00:27:36;;;;;;;0.75;0.75;;;;;;;0.37;76.25;97737.47;29990;203;6004;-59
2021/04/15 00:28:07;;;;;;;0.80;0.80;;;;;;;0.39;76.25;97732.72;29990;268;6000;-59
2021/04/15 00:28:38;;;;;;;0.80;0.80;;;;;;;0.41;76.12;97729.84;29990;232;6004;-57
2021/04/15 00:29:09;;;;;;;0.80;0.80;;;;;;;0.36;76.21;97722.47;29990;210;6000;-59
2021/04/15 00:29:39;;;;;;;0.80;0.80;;;;;;;0.40;76.17;97731.72;29990;203;6004;-56
2021/04/15 00:30:12;;;;;;;0.80;0.80;;;;;;;0.41;76.14;97736.00;29990;318;6000;-58
2021/04/15 00:30:44;;;;;;;0.80;0.80;;;;;;;0.39;76.27;97730.06;29990;352;6005;-58
2021/04/15 00:31:14;;;;;;;0.80;0.80;;;;;;;0.39;76.24;97729.25;29989;265;6000;-56
2021/04/15 00:31:45;;;;;;;0.80;0.80;;;;;;;0.34;76.16;97724.56;29990;318;6019;-58
2021/04/15 00:32:15;;;;;;;0.70;0.70;;;;;;;0.36;76.44;97729.66;29989;298;6000;-59
2021/04/15 00:32:46;;;;;;;0.80;0.80;;;;;;;0.35;76.30;97734.16;29989;320;6005;-56
2021/04/15 00:33:19;;;;;;;0.80;0.80;;;;;;;0.34;76.38;97732.56;29990;227;6000;-59
2021/04/15 00:33:50;;;;;;;0.80;0.80;;;;;;;0.32;76.38;97739.97;29990;271;6004;-58
2021/04/15 00:34:20;;;;;;;0.80;0.80;;;;;;;0.31;76.37;97738.31;29990;198;6000;-58
2021/04/15 00:34:51;;;;;;;0.80;0.80;;;;;;;0.28;76.43;97733.38;29990;197;6004;-59
2021/04/15 00:35:21;;;;;;;0.80;0.80;;;;;;;0.25;76.59;97734.63;29990;199;6000;-59
2021/04/15 00:35:53;;;;;;;0.80;0.80;;;;;;;0.21;76.58;97735.22;29990;213;6004;-57
2021/04/15 00:36:26;;;;;;;0.80;0.80;;;;;;;0.19;76.66;97734.63;29990;218;6000;-58
2021/04/15 00:36:56;;;;;;;0.80;0.80;;;;;;;0.14;76.65;97729.06;29990;196;6004;-58
2021/04/15 00:37:27;;;;;;;0.70;0.70;;;;;;;0.13;76.74;97730.09;29989;222;6000;-56
2021/04/15 00:38:01;;;;;;;0.80;0.80;;;;;;;0.16;76.64;97719.00;29990;203;6004;-58
2021/04/15 00:38:31;;;;;;;0.80;0.80;;;;;;;0.16;76.74;97721.69;29990;197;6000;-58
2021/04/15 00:39:03;;;;;;;0.80;0.80;;;;;;;0.19;76.70;97730.09;29990;301;6005;-58
2021/04/15 00:39:34;;;;;;;0.80;0.80;;;;;;;0.17;76.67;97726.81;29990;282;6000;-56
2021/04/15 00:40:07;;;;;;;0.80;0.80;;;;;;;0.18;76.76;97727.63;29990;197;6005;-59
2021/04/15 00:40:47;;;;;;;0.80;0.80;;;;;;;0.15;76.96;97720.03;29990;259;6000;-58
2021/04/15 00:41:17;;;;;;;0.80;0.80;;;;;;;0.13;76.98;97720.25;29990;358;6004;-59
2021/04/15 00:41:49;;;;;;;0.80;0.80;;;;;;;0.13;77.00;97719.41;29990;219;6000;-59
2021/04/15 00:42:19;;;;;;;0.70;0.70;;;;;;;0.12;76.90;97721.28;29989;202;6004;-58
2021/04/15 00:42:51;;;;;;;0.90;0.90;;;;;;;0.13;77.01;97714.91;29990;208;6000;-59
2021/04/15 00:43:25;;;;;;;0.80;0.80;;;;;;;0.12;77.26;97723.13;29990;310;6004;-56
2021/04/15 00:43:56;;;;;;;0.80;0.80;;;;;;;0.13;76.90;97727.44;29989;204;6008;-58
2021/04/15 00:44:27;;;;;;;0.80;0.80;;;;;;;0.13;77.04;97722.09;29990;204;6004;-58
2021/04/15 00:45:08;;;;;;;0.70;0.70;;;;;;;0.14;76.90;97715.72;29990;207;6000;-58
2021/04/15 00:45:41;;;;;;;0.80;0.80;;;;;;;0.15;76.80;97722.72;29990;206;6005;-58
2021/04/15 00:47:06;;;;;;;0.80;0.80;;;;;;;0.15;76.76;97715.53;29990;236;6000;-58
2021/04/15 00:47:42;;;;;;;0.80;0.80;;;;;;;0.15;76.59;97714.69;29989;208;6005;-59
2021/04/15 00:48:38;;;;;;;0.80;0.80;;;;;;;0.19;76.82;97718.59;29990;367;6000;-56
2021/04/15 00:49:13;;;;;;;0.80;0.80;;;;;;;0.15;76.92;97720.88;29989;208;6004;-58
2021/04/15 00:49:53;;;;;;;0.90;0.90;;;;;;;0.11;76.80;97716.13;29990;288;6000;-59
2021/04/15 00:50:34;;;;;;;1.42;1.42;;;;;;;0.11;76.68;97716.97;29990;208;6004;-58
2021/04/15 00:51:24;;;;;;;0.80;0.80;;;;;;;0.10;76.72;97715.31;29990;242;6000;-58
2021/04/15 00:52:00;;;;;;;0.80;0.80;;;;;;;0.07;77.12;97714.91;29990;270;6004;-59
2021/04/15 00:52:35;;;;;;;0.80;0.80;;;;;;;0.03;77.30;97714.50;29990;233;6000;-59
2021/04/15 00:53:11;;;;;;;0.80;0.80;;;;;;;0.03;77.18;97713.66;29990;291;6004;-58
2021/04/15 00:53:52;;;;;;;0.80;0.80;;;;;;;0.02;77.11;97712.03;29990;207;6000;-59
2021/04/15 00:55:00;;;;;;;0.80;0.80;;;;;;;0.04;77.04;97709.97;29989;221;6005;-58
2021/04/15 00:55:33;;;;;;;0.80;0.80;;;;;;;0.05;76.95;97711.62;29990;204;6016;-59
2021/04/15 00:56:06;;;;;;;0.80;0.80;;;;;;;0.03;77.04;97708.34;29990;202;6000;-56
2021/04/15 00:56:38;;;;;;;0.80;0.80;;;;;;;0.07;76.98;97706.91;29988;242;6004;-59
2021/04/15 00:57:32;;;;;;;0.80;0.80;;;;;;;0.11;76.71;97714.28;29990;204;6000;-58
2021/04/15 00:58:06;;;;;;;0.80;0.80;;;;;;;0.13;76.63;97714.09;29990;214;6004;-59
2021/04/15 00:58:37;;;;;;;0.80;0.80;;;;;;;0.13;76.68;97711.41;29989;216;6000;-56
2021/04/15 00:59:08;;;;;;;0.80;0.80;;;;;;;0.12;76.56;97712.44;29990;259;6004;-58
2021/04/15 00:59:40;;;;;;;0.80;0.80;;;;;;;0.14;76.59;97721.06;29990;208;6000;-58
2021/04/15 01:00:12;;;;;;;0.80;0.80;;;;;;;0.16;76.67;97705.66;29990;228;6004;-55
2021/04/15 01:00:46;;;;;;;0.80;0.80;;;;;;;0.16;76.47;97703.00;29990;202;6000;-58
2021/04/15 01:01:18;;;;;;;0.80;0.80;;;;;;;0.18;76.42;97716.97;29990;205;6005;-58
2021/04/15 01:01:49;;;;;;;0.80;0.80;;;;;;;0.16;76.21;97713.69;29989;227;6000;-55
2021/04/15 01:02:22;;;;;;;0.80;0.80;;;;;;;0.15;76.45;97712.84;29991;186;6005;-58
2021/04/15 01:02:55;;;;;;;0.80;0.80;;;;;;;0.15;76.43;97714.69;29990;246;6000;-59
2021/04/15 01:03:29;;;;;;;0.80;0.80;;;;;;;0.14;76.41;97710.38;29989;237;6004;-58
2021/04/15 01:04:00;;;;;;;0.70;0.70;;;;;;;0.13;76.35;97709.56;29990;202;6000;-56
2021/04/15 01:04:30;;;;;;;0.80;0.80;;;;;;;0.15;76.47;97704.84;29990;199;6004;-58
2021/04/15 01:05:10;;;;;;;0.80;0.80;;;;;;;0.19;76.10;97707.94;29990;213;6000;-58
2021/04/15 01:05:44;;;;;;;0.70;0.70;;;;;;;0.21;76.14;97705.88;29990;225;6004;-59
2021/04/15 01:06:16;;;;;;;0.70;0.70;;;;;;;0.23;75.84;97703.81;29989;215;6006;-59
2021/04/15 01:06:48;;;;;;;0.70;0.70;;;;;;;0.23;76.00;97709.16;29990;229;6004;-59
2021/04/15 01:07:22;;;;;;;0.80;0.80;;;;;;;0.23;76.00;97703.81;29989;229;6000;-59
2021/04/15 01:07:54;;;;;;;0.80;0.80;;;;;;;0.22;76.17;97702.19;29990;290;6004;-59
2021/04/15 01:08:25;;;;;;;0.75;0.75;;;;;;;0.21;76.00;97711.22;29989;207;6011;-59
2021/04/15 01:08:59;;;;;;;0.80;0.80;;;;;;;0.19;76.00;97706.06;29990;197;6005;-58
2021/04/15 01:09:30;;;;;;;0.80;0.80;;;;;;;0.20;75.99;97704.22;29990;199;6000;-59
2021/04/15 01:10:06;;;;;;;0.80;0.80;;;;;;;0.20;75.99;97701.56;29990;229;6005;-58
2021/04/15 01:10:40;;;;;;;0.80;0.80;;;;;;;0.20;76.01;97698.91;29990;250;6000;-58
2021/04/15 01:11:55;;;;;;;0.80;0.80;;;;;;;0.21;76.16;97705.88;29990;209;6004;-58
2021/04/15 01:13:02;;;;;;;0.70;0.70;;;;;;;0.17;76.36;97700.13;29990;202;6004;-58
2021/04/15 01:14:09;;;;;;;0.80;0.80;;;;;;;0.16;76.26;97703.00;29990;227;6000;-58
2021/04/15 01:15:21;;;;;;;0.80;0.80;;;;;;;0.15;76.26;97698.69;29990;247;6000;-58
2021/04/15 01:16:36;;;;;;;0.80;0.80;;;;;;;0.15;76.07;97696.03;29990;206;6005;-58
2021/04/15 01:20:00;;;;;;;0.80;0.80;;;;;;;0.14;76.01;97699.72;29989;203;6004;-56
2021/04/15 01:21:07;;;;;;;0.80;0.80;;;;;;;0.09;76.33;97692.31;29990;225;6000;-60
2021/04/15 01:22:08;;;;;;;3.05;2.95;;;;;;;0.07;76.36;97690.87;29990;208;6000;-58
2021/04/15 01:23:16;;;;;;;0.80;0.80;;;;;;;0.07;76.53;97699.72;29990;216;6004;-60
2021/04/15 01:24:21;;;;;;;0.80;0.80;;;;;;;0.06;76.56;97699.91;29989;294;6010;-58
2021/04/15 01:25:03;;;;;;;0.80;0.80;;;;;;;0.05;76.58;97700.94;29990;335;6005;-58
2021/04/15 01:26:26;;;;;;;0.80;0.80;;;;;;;-0.03;76.59;97691.31;29990;229;6000;-59
2021/04/15 01:27:51;;;;;;;0.80;0.80;;;;;;;0.02;76.31;97702.19;29990;209;6000;-58
2021/04/15 01:29:16;;;;;;;0.80;0.80;;;;;;;-0.05;76.63;97696.88;29990;197;6004;-56
2021/04/15 01:30:20;;;;;;;0.80;0.80;;;;;;;-0.04;76.82;97698.50;29989;210;6000;-58
2021/04/15 01:30:59;;;;;;;0.80;0.80;;;;;;;-0.05;76.86;97693.38;29990;215;6005;-59
2021/04/15 01:31:57;;;;;;;0.80;0.80;;;;;;;-0.03;76.58;97699.34;29990;197;6000;-59
2021/04/15 01:32:32;;;;;;;0.80;0.80;;;;;;;-0.01;76.75;97700.78;29990;319;6005;-58
2021/04/15 01:33:25;;;;;;;0.80;0.80;;;;;;;0.05;76.29;97698.28;29990;197;6000;-58
2021/04/15 01:34:27;;;;;;;0.80;0.80;;;;;;;0.07;76.09;97694.38;29990;251;6004;-59
2021/04/15 01:35:25;;;;;;;0.80;0.80;;;;;;;0.11;75.97;97702.78;29989;307;6000;-59
2021/04/15 01:36:11;;;;;;;0.88;0.88;;;;;;;0.14;75.62;97687.19;29990;221;6004;-58
2021/04/15 01:36:49;;;;;;;0.80;0.80;;;;;;;0.14;75.83;97694.38;29990;196;6000;-58
2021/04/15 01:38:15;;;;;;;0.80;0.80;;;;;;;0.12;75.78;97691.09;29989;196;6004;-59
2021/04/15 01:38:55;;;;;;;0.80;0.80;;;;;;;0.10;75.95;97687.81;29990;225;6015;-56
2021/04/15 01:39:37;;;;;;;0.80;0.80;;;;;;;0.07;75.87;97691.72;29990;207;6000;-59
2021/04/15 01:40:14;;;;;;;0.80;0.80;;;;;;;0.07;76.22;97688.22;29988;218;6004;-58
2021/04/15 01:41:19;;;;;;;0.77;0.77;;;;;;;0.04;76.50;97693.97;29990;299;6000;-59
2021/04/15 01:42:04;;;;;;;0.70;0.70;;;;;;;0.00;76.65;97686.38;29990;306;6004;-59
2021/04/15 01:42:48;;;;;;;1.00;1.00;;;;;;;-0.10;76.73;97688.66;29990;220;6000;-59
2021/04/15 01:43:30;;;;;;;0.80;0.80;;;;;;;-0.16;76.82;97694.00;29990;215;6004;-56
2021/04/15 01:44:07;;;;;;;0.80;0.80;;;;;;;-0.20;77.00;97690.09;29990;224;6000;-59
2021/04/15 01:44:53;;;;;;;0.77;0.77;;;;;;;-0.21;77.02;97694.59;29990;215;6004;-59
2021/04/15 01:45:24;;;;;;;0.80;0.80;;;;;;;-0.19;77.13;97689.06;29990;228;6000;-58
2021/04/15 01:45:57;;;;;;;0.70;0.70;;;;;;;-0.17;76.83;97695.00;29990;203;6005;-60
2021/04/15 01:46:32;;;;;;;0.80;0.80;;;;;;;-0.15;76.92;97685.78;29990;272;6000;-56
2021/04/15 01:47:09;;;;;;;0.80;0.80;;;;;;;-0.16;76.82;97692.16;29990;290;6005;-60
2021/04/15 01:47:54;;;;;;;0.80;0.80;;;;;;;-0.20;77.16;97693.56;29990;213;6000;-59
2021/04/15 01:48:28;;;;;;;0.80;0.80;;;;;;;-0.24;77.05;97695.00;29990;216;6004;-60
2021/04/15 01:49:02;;;;;;;0.80;0.80;;;;;;;-0.29;77.12;97689.47;29990;220;6000;-59
2021/04/15 01:49:38;;;;;;;0.80;0.80;;;;;;;-0.35;77.34;97690.31;29989;229;6004;-59
2021/04/15 01:50:24;;;;;;;0.80;0.80;;;;;;;-0.42;77.78;97694.81;29990;327;6000;-58
2021/04/15 01:50:58;;;;;;;0.80;0.80;;;;;;;-0.48;77.45;97691.09;29989;209;6004;-56
2021/04/15 01:51:40;;;;;;;0.80;0.80;;;;;;;-0.46;77.76;97698.91;29990;231;6000;-59
2021/04/15 01:52:13;;;;;;;0.80;0.80;;;;;;;-0.51;77.47;97685.34;29990;229;6004;-58
2021/04/15 01:52:47;;;;;;;0.80;0.80;;;;;;;-0.48;77.71;97698.28;29990;205;6000;-59
2021/04/15 01:53:33;;;;;;;0.80;0.80;;;;;;;-0.50;78.12;97692.31;29990;218;6005;-56
2021/04/15 01:54:07;;;;;;;0.80;0.80;;;;;;;-0.51;77.99;97699.50;29990;314;6000;-59
2021/04/15 01:54:51;;;;;;;0.80;0.80;;;;;;;-0.49;78.16;97700.13;29990;205;6005;-58
2021/04/15 01:55:47;;;;;;;0.80;0.80;;;;;;;-0.44;77.75;97696.84;29990;352;6000;-59
2021/04/15 01:56:30;;;;;;;0.80;0.80;;;;;;;-0.42;77.99;97694.81;29989;210;6004;-58
2021/04/15 01:57:21;;;;;;;0.80;0.80;;;;;;;-0.40;77.73;97698.91;29990;218;6000;-59
2021/04/15 01:58:24;;;;;;;0.80;0.80;;;;;;;-0.44;77.75;97697.66;29990;211;6004;-56
2021/04/15 01:59:17;;;;;;;0.80;0.80;;;;;;;-0.48;78.00;97701.75;29990;246;6010;-58
2021/04/15 01:59:56;;;;;;;0.80;0.80;;;;;;;-0.54;78.02;97696.41;29990;341;6000;-58
2021/04/15 02:00:31;;;;;;;0.80;0.80;;;;;;;-0.59;78.19;97693.53;29990;219;6005;-59
2021/04/15 02:01:08;;;;;;;6.70;6.47;;;;;;;-0.60;78.22;97695.38;29990;223;6000;-58
2021/04/15 02:01:46;;;;;;;0.80;0.80;;;;;;;-0.58;77.93;97700.50;29989;210;6005;-59
2021/04/15 02:02:25;;;;;;;0.80;0.80;;;;;;;-0.56;77.92;97695.78;29990;224;6000;-59
2021/04/15 02:03:02;;;;;;;0.80;0.80;;;;;;;-0.54;77.94;97699.91;29990;338;6004;-59
2021/04/15 02:03:36;;;;;;;0.80;0.80;;;;;;;-0.54;78.02;97691.09;29990;233;6000;-58
2021/04/15 02:04:12;;;;;;;0.80;0.80;;;;;;;-0.53;78.07;97698.06;29990;210;6007;-59
2021/04/15 02:04:54;;;;;;;0.85;0.85;;;;;;;-0.54;78.06;97693.75;29990;249;6000;-60
2021/04/15 02:05:28;;;;;;;0.80;0.80;;;;;;;-0.53;78.03;97693.56;29990;204;6004;-56
2021/04/15 02:06:02;;;;;;;0.80;0.80;;;;;;;-0.48;77.69;97700.94;29990;231;6000;-60
2021/04/15 02:06:39;;;;;;;0.80;0.80;;;;;;;-0.47;77.79;97691.91;29990;219;6004;-59
2021/04/15 02:07:15;;;;;;;0.80;0.80;;;;;;;-0.47;77.72;97695.41;29989;221;6000;-59
2021/04/15 02:07:52;;;;;;;0.80;0.80;;;;;;;-0.49;77.81;97693.97;29990;244;6004;-58
2021/04/15 02:08:27;;;;;;;0.80;0.80;;;;;;;-0.45;77.83;97698.69;29990;224;6000;-58
2021/04/15 02:09:03;;;;;;;0.80;0.80;;;;;;;-0.45;77.67;97700.53;29990;229;6005;-58
2021/04/15 02:09:37;;;;;;;0.80;0.80;;;;;;;-0.50;77.46;97697.66;29990;230;6000;-59
2021/04/15 02:10:11;;;;;;;0.80;0.80;;;;;;;-0.53;77.73;97687.41;29990;213;6005;-59
2021/04/15 02:10:54;;;;;;;0.77;0.77;;;;;;;-0.57;77.92;97699.47;29990;197;6000;-58
2021/04/15 02:11:29;;;;;;;0.90;0.90;;;;;;;-0.69;77.94;97696.59;29989;214;6004;-58
2021/04/15 02:12:12;;;;;;;1.27;1.23;;;;;;;-0.71;78.25;97702.13;29990;294;6000;-58
2021/04/15 02:12:47;;;;;;;0.80;0.80;;;;;;;-0.74;78.39;97699.06;29989;213;6004;-59
2021/04/15 02:13:20;;;;;;;0.80;0.80;;;;;;;-0.77;78.39;97697.63;29990;215;6000;-60
2021/04/15 02:13:54;;;;;;;0.80;0.80;;;;;;;-0.71;78.38;97702.13;29990;231;6004;-58
2021/04/15 02:14:28;;;;;;;0.80;0.80;;;;;;;-0.65;78.13;97700.50;29990;230;6000;-58
2021/04/15 02:15:04;;;;;;;0.80;0.80;;;;;;;-0.62;78.25;97701.94;29990;202;6004;-58
2021/04/15 02:15:50;;;;;;;0.80;0.80;;;;;;;-0.59;77.92;97699.69;29990;229;6000;-59
2021/04/15 02:16:26;;;;;;;0.80;0.80;;;;;;;-0.55;77.86;97702.78;29990;197;6005;-59
2021/04/15 02:17:04;;;;;;;0.80;0.80;;;;;;;-0.52;77.58;97697.84;29990;299;6000;-58
2021/04/15 02:17:41;;;;;;;0.80;0.80;;;;;;;-0.50;77.49;97697.66;29990;264;6005;-60
2021/04/15 02:18:21;;;;;;;0.80;0.80;;;;;;;-0.49;77.46;97693.97;29989;218;6000;-58
2021/04/15 02:19:18;;;;;;;0.80;0.80;;;;;;;-0.46;77.43;97699.72;29990;221;6004;-59
2021/04/15 02:19:54;;;;;;;0.80;0.80;;;;;;;-0.45;77.74;97698.69;29989;358;6000;-58
2021/04/15 02:20:27;;;;;;;0.80;0.80;;;;;;;-0.45;77.62;97701.34;29990;341;6004;-59
2021/04/15 02:21:06;;;;;;;0.80;0.80;;;;;;;-0.44;77.55;97704.84;29990;291;6000;-59
2021/04/15 02:22:19;;;;;;;0.80;0.80;;;;;;;-0.38;77.33;97706.72;29990;314;6004;-58
2021/04/15 02:23:28;;;;;;;0.80;0.80;;;;;;;-0.30;76.88;97703.00;29989;227;6000;-59
2021/04/15 02:24:43;;;;;;;0.80;0.80;;;;;;;-0.22;76.63;97695.62;29990;240;6005;-59
2021/04/15 02:25:24;;;;;;;0.80;0.80;;;;;;;-0.18;76.50;97707.53;29990;225;6000;-58
2021/04/15 02:26:02;;;;;;;0.82;0.82;;;;;;;-0.18;76.27;97706.72;29990;395;6004;-59
2021/04/15 02:26:40;;;;;;;0.80;0.80;;;;;;;-0.16;76.39;97697.47;29990;197;6000;-58
2021/04/15 02:27:38;;;;;;;0.90;0.90;;;;;;;-0.19;76.33;97705.88;29989;226;6004;-58
2021/04/15 02:28:35;;;;;;;0.80;0.80;;;;;;;-0.20;76.51;97698.91;29990;216;6000;-58
2021/04/15 02:29:13;;;;;;;0.80;0.80;;;;;;;-0.24;76.67;97703.00;29990;215;6004;-58
2021/04/15 02:29:52;;;;;;;0.80;0.80;;;;;;;-0.29;76.65;97702.78;29990;332;6000;-59
2021/04/15 02:30:29;;;;;;;0.80;0.80;;;;;;;-0.32;76.63;97697.88;29990;204;6005;-58
2021/04/15 02:31:41;;;;;;;0.80;0.80;;;;;;;-0.34;76.85;97702.59;29990;203;6000;-60
2021/04/15 02:32:19;;;;;;;0.80;0.80;;;;;;;-0.36;76.81;97710.00;29989;277;6005;-58
2021/04/15 02:33:17;;;;;;;0.80;0.80;;;;;;;-0.36;76.87;97704.66;29990;357;6000;-59
2021/04/15 02:34:02;;;;;;;0.80;0.80;;;;;;;-0.32;76.77;97700.53;29990;220;6004;-58
2021/04/15 02:34:39;;;;;;;0.80;0.80;;;;;;;-0.34;76.89;97705.25;29990;215;6000;-59
2021/04/15 02:35:38;;;;;;;0.90;0.90;;;;;;;-0.39;77.14;97700.56;29990;292;6004;-58
2021/04/15 02:36:10;;;;;;;0.80;0.80;;;;;;;-0.40;77.58;97703.41;29990;214;6000;-58
2021/04/15 02:36:49;;;;;;;0.80;0.80;;;;;;;-0.44;77.48;97699.50;29990;199;6004;-58
2021/04/15 02:37:35;;;;;;;0.80;0.80;;;;;;;-0.46;77.63;97698.91;29989;241;6000;-59
2021/04/15 02:38:07;;;;;;;0.80;0.80;;;;;;;-0.47;77.46;97706.06;29990;212;6005;-58
2021/04/15 02:39:12;;;;;;;0.77;0.77;;;;;;;-0.46;77.62;97705.06;29990;227;6000;-59
2021/04/15 02:39:48;;;;;;;0.80;0.80;;;;;;;-0.44;77.57;97702.19;29990;372;6004;-62
2021/04/15 02:40:29;;;;;;;0.80;0.80;;;;;;;-0.43;77.38;97701.16;29990;209;6000;-58
2021/04/15 02:41:03;;;;;;;0.80;0.80;;;;;;;-0.42;77.47;97700.13;29990;209;6004;-58
2021/04/15 02:41:41;;;;;;;0.80;0.80;;;;;;;-0.42;77.48;97702.81;29989;204;6000;-59
2021/04/15 02:42:24;;;;;;;0.80;0.80;;;;;;;-0.39;77.52;97699.72;29990;254;6004;-59
2021/04/15 02:42:59;;;;;;;0.80;0.80;;;;;;;-0.38;77.51;97706.72;29990;232;6000;-59
2021/04/15 02:43:42;;;;;;;0.80;0.80;;;;;;;-0.38;77.14;97696.88;29990;229;6004;-58
2021/04/15 02:44:29;;;;;;;0.80;0.80;;;;;;;-0.37;77.27;97701.16;29990;202;6000;-59
2021/04/15 02:45:17;;;;;;;0.80;0.80;;;;;;;-0.36;77.05;97699.31;29990;209;6005;-59
2021/04/15 02:45:53;;;;;;;0.80;0.80;;;;;;;-0.35;77.13;97704.44;29990;225;6000;-58
2021/04/15 02:46:40;;;;;;;0.80;0.80;;;;;;;-0.34;77.04;97697.25;29989;221;6005;-59
2021/04/15 02:47:14;;;;;;;0.82;0.82;;;;;;;-0.37;77.31;97697.69;29990;233;6000;-55
2021/04/15 02:48:20;;;;;;;0.80;0.80;;;;;;;-0.38;77.17;97691.53;29990;254;6004;-59
2021/04/15 02:48:54;;;;;;;0.80;0.80;;;;;;;-0.36;77.02;97707.31;29990;284;6000;-59
2021/04/15 02:49:27;;;;;;;0.80;0.80;;;;;;;-0.39;77.02;97703.22;29990;390;6004;-58
2021/04/15 02:50:00;;;;;;;0.80;0.80;;;;;;;-0.41;77.07;97701.78;29990;224;6000;-59
2021/04/15 02:50:33;;;;;;;0.80;0.80;;;;;;;-0.43;77.17;97703.81;29989;213;6004;-59
2021/04/15 02:51:09;;;;;;;0.80;0.80;;;;;;;-0.45;77.25;97700.53;29990;226;6000;-55
2021/04/15 02:51:48;;;;;;;0.80;0.80;;;;;;;-0.47;77.37;97707.91;29990;196;6004;-59
2021/04/15 02:52:28;;;;;;;0.80;0.80;;;;;;;-0.49;77.39;97710.78;29990;279;6000;-59
2021/04/15 02:53:10;;;;;;;0.80;0.80;;;;;;;-0.47;77.44;97697.25;29989;209;6005;-59
2021/04/15 02:53:48;;;;;;;0.80;0.80;;;;;;;-0.45;77.50;97711.19;29990;341;6000;-57
2021/04/15 02:54:44;;;;;;;0.80;0.80;;;;;;;-0.43;77.66;97709.16;29990;309;6005;-58
2021/04/15 02:55:20;;;;;;;0.80;0.80;;;;;;;-0.43;77.60;97698.50;29990;227;6000;-59
2021/04/15 02:55:57;;;;;;;0.80;0.80;;;;;;;-0.42;77.36;97705.47;29990;234;6004;-55
2021/04/15 02:56:53;;;;;;;0.80;0.80;;;;;;;-0.41;77.49;97701.78;29989;363;6000;-58
2021/04/15 02:57:31;;;;;;;0.80;0.80;;;;;;;-0.42;77.45;97705.47;29990;222;6004;-59
2021/04/15 02:58:15;;;;;;;0.80;0.80;;;;;;;-0.47;77.60;97699.91;29990;217;6000;-59
2021/04/15 02:58:54;;;;;;;0.80;0.80;;;;;;;-0.52;77.66;97699.69;29990;229;6004;-58
2021/04/15 02:59:54;;;;;;;0.85;0.85;;;;;;;-0.56;77.94;97704.63;29990;197;6000;-58
2021/04/15 03:00:29;;;;;;;0.82;0.82;;;;;;;-0.58;78.15;97704.00;29990;200;6014;-58
2021/04/15 03:01:02;;;;;;;0.70;0.70;;;;;;;-0.59;78.17;97704.19;29989;205;6009;-59
2021/04/15 03:01:39;;;;;;;0.80;0.80;;;;;;;-0.60;78.18;97703.38;29990;229;6005;-59
2021/04/15 03:02:16;;;;;;;0.80;0.80;;;;;;;-0.59;78.17;97701.53;29989;229;6000;-55
2021/04/15 03:03:05;;;;;;;0.80;0.80;;;;;;;-0.59;78.14;97704.19;29990;207;6004;-59
2021/04/15 03:03:38;;;;;;;0.80;0.80;;;;;;;-0.57;78.11;97694.16;29990;220;6000;-58
2021/04/15 03:04:15;;;;;;;0.80;0.80;;;;;;;-0.57;77.98;97696.81;29990;197;6004;-58
2021/04/15 03:04:56;;;;;;;0.80;0.80;;;;;;;-0.56;78.10;97703.78;29990;202;6000;-59
2021/04/15 03:05:32;;;;;;;0.80;0.80;;;;;;;-0.57;78.11;97699.47;29990;296;6004;-58
2021/04/15 03:06:10;;;;;;;0.80;0.80;;;;;;;-0.60;77.99;97702.56;29990;240;6000;-59
2021/04/15 03:06:44;;;;;;;0.80;0.80;;;;;;;-0.62;78.10;97693.94;29989;278;6004;-56
2021/04/15 03:07:16;;;;;;;0.80;0.80;;;;;;;-0.64;78.29;97698.66;29990;236;6000;-55
2021/04/15 03:07:48;;;;;;;0.80;0.80;;;;;;;-0.64;78.10;97706.63;29990;218;6005;-59
2021/04/15 03:08:24;;;;;;;0.80;0.80;;;;;;;-0.65;78.30;97699.66;29990;340;6000;-59
2021/04/15 03:09:09;;;;;;;0.70;0.70;;;;;;;-0.64;78.44;97698.66;29990;336;6005;-58
2021/04/15 03:09:42;;;;;;;0.70;0.70;;;;;;;-0.65;78.54;97695.16;29990;203;6000;-58
2021/04/15 03:10:16;;;;;;;0.80;0.80;;;;;;;-0.60;78.36;97697.22;29990;230;6004;-55
2021/04/15 03:11:04;;;;;;;0.80;0.80;;;;;;;-0.61;78.25;97700.91;29990;283;6000;-58
2021/04/15 03:11:57;;;;;;;1.10;1.10;;;;;;;-0.61;78.39;97692.91;29990;351;6004;-59
2021/04/15 03:12:41;;;;;;;0.80;0.80;;;;;;;-0.60;78.57;97695.38;29989;220;6010;-59
2021/04/15 03:13:19;;;;;;;0.80;0.80;;;;;;;-0.58;78.42;97692.50;29990;231;6004;-59
2021/04/15 03:13:55;;;;;;;0.80;0.80;;;;;;;-0.58;78.47;97695.19;29990;378;6000;-59
2021/04/15 03:14:31;;;;;;;0.80;0.80;;;;;;;-0.59;78.50;97693.53;29990;197;6000;-59
2021/04/15 03:15:10;;;;;;;0.80;0.80;;;;;;;-0.61;78.47;97698.25;29990;219;6000;-60
2021/04/15 03:15:46;;;;;;;0.80;0.80;;;;;;;-0.64;78.72;97695.97;29990;211;6005;-59
2021/04/15 03:16:18;;;;;;;0.80;0.80;;;;;;;-0.65;78.69;97699.66;29990;205;6000;-58